Terminal Aerodrome Forecast
Issued by NWS Wilmington, OH

Current Version | Previous Version | Text Only | Print | Product List | Glossary Off
Versions: 1 2 3 4 5 6 7 8 9 10 11 12 13 14 15

699
FTUS41 KILN 030826 AAB
TAFILN
TAF AMD
KILN 030826Z 0308/0406 21013G23KT 5SM -SHRA BR OVC040
      TEMPO 0308/0312 18016G26KT 3SM -SHRA BR OVC025
     FM031300 22012G22KT P6SM BKN025
     FM031600 24018G28KT P6SM BKN035=

USA.gov is the U.S. government's official web portal to all federal, state and local government web resources and services.